createdAt,value
2022-08-24T00:00:27.375Z,21.30
2022-08-24T00:05:29.070Z,21.30
2022-08-24T00:10:30.853Z,21.20
2022-08-24T00:15:33.219Z,21.20
2022-08-24T00:20:35.178Z,21.10
2022-08-24T00:25:37.120Z,21.10
2022-08-24T00:30:39.192Z,21.00
2022-08-24T00:35:40.950Z,20.90
2022-08-24T00:40:46.837Z,20.80
2022-08-24T00:45:51.783Z,20.80
2022-08-24T00:51:04.701Z,20.80
2022-08-24T00:56:17.021Z,20.70
2022-08-24T01:01:19.026Z,20.60
2022-08-24T01:06:20.912Z,20.60
2022-08-24T01:11:26.457Z,20.60
2022-08-24T01:16:47.256Z,20.50
2022-08-24T01:22:06.903Z,20.40
2022-08-24T01:27:10.361Z,20.30
2022-08-24T01:32:13.329Z,20.30
2022-08-24T01:37:15.970Z,20.20
2022-08-24T01:42:17.957Z,20.20
2022-08-24T01:47:19.753Z,20.20
2022-08-24T01:52:25.590Z,20.10
2022-08-24T01:57:27.328Z,20.00
2022-08-24T02:02:32.091Z,20.00
2022-08-24T02:07:33.892Z,19.90
2022-08-24T02:12:37.542Z,19.80
2022-08-24T02:17:40.642Z,19.90
2022-08-24T02:22:42.530Z,19.80
2022-08-24T02:27:44.717Z,19.80
2022-08-24T02:32:47.146Z,19.70
2022-08-24T02:37:49.286Z,19.70
2022-08-24T02:42:51.447Z,19.70
2022-08-24T02:47:53.778Z,19.60
2022-08-24T02:52:55.535Z,19.60
2022-08-24T02:57:58.607Z,19.60
2022-08-24T03:03:01.631Z,19.50
2022-08-24T03:08:04.667Z,19.50
2022-08-24T03:13:07.519Z,19.40
2022-08-24T03:18:09.246Z,19.40
2022-08-24T03:23:10.998Z,19.40
2022-08-24T03:28:12.952Z,19.30
2022-08-24T03:33:14.912Z,19.20
2022-08-24T03:38:17.089Z,19.10
2022-08-24T03:43:37.547Z,19.00
2022-08-24T03:48:41.067Z,19.00
2022-08-24T03:53:43.791Z,18.90
2022-08-24T03:58:45.979Z,18.90
2022-08-24T04:03:49.117Z,18.80
2022-08-24T04:08:51.829Z,18.80
2022-08-24T04:13:56.616Z,18.70
2022-08-24T04:18:58.438Z,18.70
2022-08-24T04:24:00.979Z,18.70
2022-08-24T04:29:03.439Z,18.70
2022-08-24T04:34:10.560Z,18.70
2022-08-24T04:39:12.687Z,18.70
2022-08-24T04:44:14.397Z,18.80
2022-08-24T04:49:16.103Z,18.80
2022-08-24T04:54:17.867Z,18.80
2022-08-24T04:59:19.671Z,18.80
2022-08-24T05:04:21.470Z,18.70
2022-08-24T05:09:23.197Z,18.70
2022-08-24T05:14:28.612Z,18.80
2022-08-24T05:19:30.902Z,18.90
2022-08-24T05:24:32.790Z,18.80
2022-08-24T05:29:35.385Z,18.80
2022-08-24T05:34:37.374Z,18.90
2022-08-24T05:39:39.248Z,19.00
2022-08-24T05:44:40.928Z,19.00
2022-08-24T05:49:43.696Z,19.00
2022-08-24T05:54:45.835Z,19.10
2022-08-24T05:59:48.793Z,19.20
2022-08-24T06:04:50.635Z,19.20
2022-08-24T06:09:54.073Z,19.20
2022-08-24T06:14:55.828Z,19.30
2022-08-24T06:19:58.916Z,19.40
2022-08-24T06:25:19.163Z,19.50
2022-08-24T06:30:20.962Z,19.50
2022-08-24T06:35:32.199Z,19.70
2022-08-24T06:40:34.221Z,19.80
2022-08-24T06:45:38.861Z,20.00
2022-08-24T06:50:45.512Z,20.00
2022-08-24T06:55:57.332Z,20.20
2022-08-24T07:01:07.307Z,20.30
2022-08-24T07:06:09.689Z,20.40
2022-08-24T07:11:14.696Z,20.60
2022-08-24T07:16:18.803Z,20.70
2022-08-24T07:21:20.563Z,20.90
2022-08-24T07:26:25.479Z,20.90
2022-08-24T07:31:30.960Z,21.20
2022-08-24T07:36:36.989Z,21.30
2022-08-24T07:47:34.398Z,21.80
2022-08-24T07:52:29.097Z,21.90
2022-08-24T07:57:30.968Z,22.10
2022-08-24T08:02:35.109Z,22.40
2022-08-24T08:07:39.337Z,22.60
2022-08-24T08:12:41.585Z,22.80
2022-08-24T08:17:43.329Z,23.00
2022-08-24T08:23:03.834Z,23.30
2022-08-24T08:28:18.533Z,23.50
2022-08-24T08:33:28.396Z,24.00
2022-08-24T08:38:30.874Z,24.20
2022-08-24T08:44:01.600Z,24.50
2022-08-24T08:49:26.402Z,24.70
2022-08-24T08:54:43.834Z,24.90
2022-08-24T09:00:15.746Z,25.10
2022-08-24T09:05:30.644Z,25.30
2022-08-24T09:10:42.221Z,25.60
2022-08-24T09:16:00.663Z,25.70
2022-08-24T09:21:32.808Z,25.80
2022-08-24T09:26:49.442Z,25.90
2022-08-24T09:32:28.828Z,26.20
2022-08-24T09:37:48.761Z,26.30
2022-08-24T09:43:12.183Z,26.40
2022-08-24T09:48:51.541Z,26.50
2022-08-24T09:54:14.814Z,26.70
2022-08-24T09:59:44.359Z,26.90
2022-08-24T10:05:03.337Z,27.00
2022-08-24T10:10:16.307Z,27.10
2022-08-24T10:15:28.635Z,27.30
2022-08-24T10:20:58.484Z,27.50
2022-08-24T10:26:11.104Z,27.70
2022-08-24T10:31:37.616Z,27.80
2022-08-24T10:37:01.975Z,28.10
2022-08-24T10:42:52.942Z,28.30
2022-08-24T10:48:15.924Z,28.30
2022-08-24T10:53:23.392Z,28.40
2022-08-24T10:58:39.110Z,28.50
2022-08-24T11:03:53.917Z,28.60
2022-08-24T11:09:13.841Z,28.70
2022-08-24T11:14:23.773Z,28.90
2022-08-24T11:19:33.653Z,29.00
2022-08-24T11:24:43.966Z,29.10
2022-08-24T11:29:54.757Z,29.30
2022-08-24T11:35:02.079Z,29.60
2022-08-24T11:40:06.568Z,29.70
2022-08-24T11:45:21.540Z,29.80
2022-08-24T11:50:39.432Z,29.90
2022-08-24T11:56:11.506Z,30.10
2022-08-24T12:01:32.900Z,30.30
2022-08-24T12:06:44.198Z,30.60
2022-08-24T12:12:02.157Z,30.80
2022-08-24T12:17:18.875Z,31.10
2022-08-24T12:22:21.974Z,31.30
2022-08-24T12:27:32.089Z,31.40
2022-08-24T12:32:39.068Z,31.70
2022-08-24T12:37:53.277Z,31.90
2022-08-24T12:43:01.405Z,32.00
2022-08-24T12:48:21.359Z,32.20
2022-08-24T12:53:42.490Z,32.30
2022-08-24T12:58:56.788Z,32.20
2022-08-24T13:04:30.417Z,32.20
2022-08-24T13:09:36.845Z,32.20
2022-08-24T13:14:39.004Z,32.20
2022-08-24T13:19:45.064Z,32.30
2022-08-24T13:24:53.902Z,32.50
2022-08-24T13:30:06.100Z,32.50
2022-08-24T13:35:53.975Z,32.50
2022-08-24T13:41:05.279Z,32.50
2022-08-24T13:46:22.268Z,32.60
2022-08-24T13:51:38.796Z,32.70
2022-08-24T13:56:57.768Z,32.70
2022-08-24T14:02:45.880Z,32.80
2022-08-24T14:08:11.354Z,32.80
2022-08-24T14:13:49.470Z,32.90
2022-08-24T14:19:15.141Z,33.10
2022-08-24T14:24:46.763Z,33.10
2022-08-24T14:29:53.205Z,33.10
2022-08-24T14:35:05.868Z,33.10
2022-08-24T14:40:45.534Z,33.10
2022-08-24T14:46:16.684Z,33.10
2022-08-24T14:51:54.205Z,33.10
2022-08-24T14:57:26.988Z,33.10
2022-08-24T15:02:53.426Z,33.20
2022-08-24T15:08:26.758Z,33.10
2022-08-24T15:13:46.111Z,33.20
2022-08-24T15:18:58.531Z,33.10
2022-08-24T15:24:42.147Z,33.00
2022-08-24T15:29:57.165Z,32.80
2022-08-24T15:34:58.953Z,32.80
2022-08-24T15:40:01.958Z,32.80
2022-08-24T15:45:05.671Z,32.80
2022-08-24T15:50:21.913Z,32.80
2022-08-24T15:55:40.793Z,32.80
2022-08-24T16:01:04.280Z,32.70
2022-08-24T16:06:34.507Z,32.60
2022-08-24T16:11:41.694Z,32.50
2022-08-24T16:16:45.501Z,32.50
2022-08-24T16:22:00.987Z,32.40
2022-08-24T16:27:08.843Z,32.30
2022-08-24T16:32:21.196Z,32.20
2022-08-24T16:37:25.223Z,32.20
2022-08-24T16:42:31.009Z,32.20
2022-08-24T16:47:32.855Z,32.10
2022-08-24T16:52:34.544Z,32.10
2022-08-24T16:57:37.496Z,32.00
2022-08-24T17:02:40.325Z,32.00
2022-08-24T17:07:43.265Z,31.90
2022-08-24T17:12:44.950Z,31.80
2022-08-24T17:17:56.296Z,31.70
2022-08-24T17:22:58.865Z,31.70
2022-08-24T17:28:01.415Z,31.60
2022-08-24T17:33:03.392Z,31.50
2022-08-24T17:38:05.410Z,31.30
2022-08-24T17:43:07.379Z,31.20
2022-08-24T17:48:09.833Z,31.10
2022-08-24T17:53:15.275Z,30.90
2022-08-24T17:58:17.167Z,30.80
2022-08-24T18:03:18.913Z,30.70
2022-08-24T18:08:20.699Z,30.50
2022-08-24T18:13:23.667Z,30.40
2022-08-24T18:18:25.547Z,30.20
2022-08-24T18:23:27.296Z,30.10
2022-08-24T18:28:29.040Z,29.90
2022-08-24T18:33:30.753Z,29.70
2022-08-24T18:38:32.911Z,29.50
2022-08-24T18:43:34.946Z,29.20
2022-08-24T18:48:36.709Z,29.10
2022-08-24T18:53:38.595Z,28.90
2022-08-24T18:58:40.419Z,28.60
2022-08-24T19:03:43.561Z,28.40
2022-08-24T19:08:45.289Z,28.20
2022-08-24T19:13:46.957Z,28.00
2022-08-24T19:18:50.082Z,27.80
2022-08-24T19:23:51.993Z,27.70
2022-08-24T19:28:53.682Z,27.50
2022-08-24T19:33:59.842Z,27.30
2022-08-24T19:39:05.363Z,27.10
2022-08-24T19:44:27.837Z,26.90
2022-08-24T19:49:30.034Z,26.80
2022-08-24T19:54:38.062Z,26.50
2022-08-24T19:59:41.105Z,26.40
2022-08-24T20:04:42.877Z,26.20
2022-08-24T20:09:44.889Z,26.00
2022-08-24T20:14:46.620Z,25.90
2022-08-24T20:19:48.317Z,25.70
2022-08-24T20:24:52.592Z,25.50
2022-08-24T20:29:55.055Z,25.50
2022-08-24T20:34:56.764Z,25.30
2022-08-24T20:39:58.928Z,25.10
2022-08-24T20:45:00.878Z,25.00
2022-08-24T20:50:02.681Z,24.90
2022-08-24T20:55:05.380Z,24.70
2022-08-24T21:00:10.235Z,24.60
2022-08-24T21:05:12.285Z,24.60
2022-08-24T21:10:14.215Z,24.50
2022-08-24T21:15:17.057Z,24.40
2022-08-24T21:20:20.326Z,24.40
2022-08-24T21:25:23.080Z,24.40
2022-08-24T21:30:24.813Z,24.40
2022-08-24T21:35:26.953Z,24.30
2022-08-24T21:40:29.357Z,24.30
2022-08-24T21:45:32.392Z,24.30
2022-08-24T21:50:34.166Z,24.20
2022-08-24T21:55:36.548Z,24.20
2022-08-24T22:00:39.222Z,24.10
2022-08-24T22:05:40.981Z,24.00
2022-08-24T22:10:43.251Z,24.00
2022-08-24T22:15:46.087Z,23.90
2022-08-24T22:20:47.952Z,23.90
2022-08-24T22:25:53.829Z,23.90
2022-08-24T22:30:56.579Z,23.80
2022-08-24T22:35:58.365Z,23.80
2022-08-24T22:41:00.140Z,23.70
2022-08-24T22:46:01.858Z,23.70
2022-08-24T22:51:08.211Z,23.60
2022-08-24T22:56:22.783Z,23.60
2022-08-24T23:01:29.418Z,23.50
2022-08-24T23:06:31.396Z,23.50
2022-08-24T23:11:34.092Z,23.40
2022-08-24T23:16:38.624Z,23.40
2022-08-24T23:21:40.888Z,23.40
2022-08-24T23:26:43.413Z,23.30
2022-08-24T23:31:47.299Z,23.20
2022-08-24T23:36:50.053Z,23.10
2022-08-24T23:41:53.436Z,22.90
2022-08-24T23:46:56.892Z,22.80
2022-08-24T23:51:59.084Z,22.70
2022-08-24T23:57:00.880Z,22.60
